Aktualne dane pomiarowe

Uwaga, wersja testowa! Automatyczne pobieranie danych za pomocą narzędzi lub skryptów to umożliwiających jest zabronione.

Dane meteo z obszaru Polski uzyskane na podstawie depesz SYNOP pobieranych co godzinę z NWS. Najedź myszką na symbol przedstawiony w tabeli, aby uzyskać informacje co do jego znaczenia. Prosimy pamiętać, że to testowa wersja strony, która jeszcze nie jest ukończona. Stworzono również jest krótki FAQ dotyczący korzystania z tej podstrony Anomalie temperatury w chwili obecnej odniesione są do okresu referencyjnego 1951-2016. Okres ten będzie później zmieniony na 1981-2010. Kliknij ikonę aby pobrać plik CSV. Kliknij ikonę aby wygenerować mapę synoptyczną dla danego terminu.

Wybierz Datę:    

        

Białystok (12295)

Dane terminowe dla wybranej stacji. Kliknij datę, aby otrzymać dane z tego terminu dla wszystkich stacji.

TemperaturaZachmurzenieWiatrCiśnienieOpadyPogoda
 Data t td wb tx tn tg rh  Nt Nl Cl Cm Ch ws wd g1 g2 wx mslp ppp ch 24h 12h t ww ww w1 w2  
2019-07-07 23:00:00 12.6 10.7 11.3--- 8850.0wxwxwxwx2wx--21005.8 987.7 0.2---------
2019-07-07 22:00:00 12.7 10.6 11.3--- 8750.0wxwxwxwx2wx--21005.8 987.7 0.8---------
2019-07-07 21:00:00 12.7 10.6 11.3--- 8750.0wxwxwxwx3wx-1031005.8 987.7 1.5---wx---
2019-07-07 20:00:00 14.0 9.6 11.2--- 7517.0wxwxwx4wx101041005.5 987.5 1.4---wx---
2019-07-07 19:00:00 16.4 8.1 11.5--- 5850.0wxwxwxwx3wx---1004.8 986.9 1.1---------
2019-07-07 18:00:00 17.3 7.3 11.6 20.9 15.7- 5250.0wxwxwxwx4wx-1141004.0 986.2 0.1- 0.012------
2019-07-07 17:00:00 17.8 7.2 11.8--- 5050.0wxwxwxwx4wx---1003.9 986.1 0.1---------
2019-07-07 16:00:00 19.1 6.6 12.2--- 4440.0wxwxwxwx4wx---1003.5 985.8 0.1---------
2019-07-07 15:00:00 18.3 8.0 12.4--- 5135.0wxwxwx4wx101141003.8 986.1 0.6---------
2019-07-07 14:00:00 18.7 6.8 12.0--- 4635.0wxwxwx5wx-1051003.7 986.0 0.8---------
2019-07-07 13:00:00 20.5 7.5 13.2--- 4330.0wxwxwx5wx10--1003.3 985.7 0.7---------
2019-07-07 12:00:00 19.8 6.2 12.3--- 4130.0wxwxwx5wx-1151003.1 985.5 0.5- 0.06------
2019-07-07 11:00:00 20.1 8.4 13.4--- 4730.0wxwxwx6wx---1002.8 985.2 0.4---------
2019-07-07 10:00:00 18.9 8.5 12.9--- 5145.0wxwxwx6wx111161002.7 985.0 0.1---------
2019-07-07 09:00:00 18.5 11.8 14.3--- 6535.0wxwxwx4wx-841002.7 985.0 0.4---------
2019-07-07 08:00:00 16.9 12.4 14.0--- 7535.0wxwxwxwx4wx--41002.6 984.8 0.0---------
2019-07-07 07:00:00 16.1 13.6 14.4--- 8525.0wxwxwx3wx--31002.7 984.9 -0.3---------
2019-07-07 06:00:00 15.7 14.1 14.6 17.6 14.1 14 9015.0wxwxwx2wx--21002.5 984.6 -0.8 0.7 0.712wx-w1- 10.2
2019-07-07 05:00:00 15.0 13.9 14.2--- 939.0wxwxwx2wx--21002.7 984.8 -0.8---wx---
2019-07-07 04:00:00 14.6 14.0 14.1--- 967.0wxwxwx2wx--21003.1 985.2 -1.3---wx---
2019-07-07 03:00:00 14.2 13.7 13.8--- 976.0wxwxwx2wx--21003.4 985.4 -1.3---wx-w1--
2019-07-07 02:00:00 14.1 13.6 13.7--- 976.0wxwxwx2wx--21003.6 985.6 -1.1---wx---
2019-07-07 01:00:00 14.2 13.7 13.8--- 977.0wxwxwx2wx---1004.5 986.5 -0.4---wx-w1w2--
2019-07-07 00:00:00 14.3 13.2 13.5--- 9313.0wxwxwx2wx--21004.7 986.7 -0.6- 0.36wx-w1--
2019-07-06 23:00:00 14.4 13.3 13.6--- 9322.0wx-wx1wx--11004.7 986.7 -0.8---wx---
2019-07-06 22:00:00 14.7 13.4 13.8--- 9224.0wxwxwxwx1wx--11004.9 986.9 -0.9---wx-w1w2--
2019-07-06 21:00:00 15.1 13.0 13.6--- 8735.0wxwxwxwx1wx--11005.2 987.3 -1.1---wx---
2019-07-06 20:00:00 15.5 12.1 13.2--- 8045.0wxwxwxwx1wx--11005.4 987.5 -1.3---wx---
2019-07-06 19:00:00 15.3 11.7 12.9--- 7945.0wx-wx1wx--11005.7 987.8 -1.2---------
2019-07-06 18:00:00 17.6 10.9 13.4 20.5 13.8- 6550.0wxwxwxwx2wx-921006.2 988.4 -0.8- 0.012------
2019-07-06 17:00:00 17.9 10.8 13.5--- 6350.0wxwxwxwx2wx7721006.6 988.8 -0.5---------
2019-07-06 16:00:00 18.4 9.7 13.2--- 5745.0wxwxwx3wx-931006.8 989.0 -0.7---------
2019-07-06 15:00:00 19.1 8.7 13.0--- 5145.0wxwxwxwx4wx--41006.9 989.2 -0.6---------
2019-07-06 14:00:00 19.5 8.2 13.0--- 4840.0wxwxwxwx4wx--41007.0 989.3 -0.8---------
2019-07-06 13:00:00 20.1 8.1 13.2--- 4640.0wxwxwxwx3wx--31007.4 989.7 -0.7---------
2019-07-06 12:00:00 19.5 6.6 12.3--- 4335.0wxwxwxwx3wx-1031007.5 989.8 -0.7- 0.06------
2019-07-06 11:00:00 19.6 4.1 11.4--- 3635.0wxwxwxwxwx4wx-941007.8 990.1 -0.5---------
2019-07-06 10:00:00 18.6 4.7 11.2--- 4030.0wxwxwxwx4wx91041008.2 990.4 -0.4---------
2019-07-06 09:00:00 17.8 4.7 10.8--- 4235.0wxwxwxwx4wx-1041008.3 990.5 -0.4---------
2019-07-06 08:00:00 16.7 5.0 10.4--- 4635.0wx-wx4wx-1041008.5 990.6 -0.3---------
2019-07-06 07:00:00 15.7 7.2 10.8--- 5735.0wx-wx3wx--31008.8 990.8 -0.1---------
2019-07-06 06:00:00 13.9 7.6 10.1 16.8 6.3 3 6640.0wx-wx3wx--31009.0 990.9 -0.1 5.6 0.012----- 4.2
2019-07-06 05:00:00 11.9 7.0 8.9--- 7240.0wx-wx3wx--31009.1 990.9 0.0---------
2019-07-06 04:00:00 10.8 6.7 8.3--- 7645.0wx-2wx--21009.2 990.9 -0.3---------
2019-07-06 03:00:00 9.1 7.4 7.9--- 8945.0wx-2wx--21009.4 991.0 -0.2---------
2019-07-06 02:00:00 7.8 7.0 7.2--- 9530.0wx-2wx--21009.4 990.9 -0.5---wx---
2019-07-06 01:00:00 7.2 7.1 7.1--- 9910.0wx-2wx--21009.7 991.2 -0.2---------
2019-07-06 00:00:00 6.4 6.3 6.2--- 9910.0wx-1wx--11009.8 991.2 0.1- 0.06------
1.1 ms

 

Print Friendly, PDF & Email